ARG1789 SARI-SABE
Flight info
| Callsign | ARG1789 |
|---|---|
| Flight time | 1h 28m |
| Altitude | 36000 |
| Route | NAIDE UT667 GEMSU UN785 GUA UZ129 PAGON PAGON8Q |
| Aircraft | B738/M-SDE2E3FGHIRWXY/LB1 |
Departure
| Time | 2026-04-16 19:33 |
|---|---|
| Airport | Cataratas Del Iguazú International Airport (SARI) |
Arrival
| Time | 2026-04-16 21:01 |
|---|---|
| Airport | Aeroparque Jorge Newbery (SABE) |
| Time | Latitude | Longitude | Altitude | Speed | Heading |
|---|---|---|---|---|---|
| 2026-04-16 19:33 | -25.89667 | -54.37505 | 8401 ft | 296 kts | 180° |
| 2026-04-16 19:33 | -25.91727 | -54.37381 | 9200 ft | 299 kts | 181° |
| 2026-04-16 19:33 | -25.93809 | -54.37250 | 9993 ft | 300 kts | 181° |
| 2026-04-16 19:33 | -25.95940 | -54.37113 | 10415 ft | 317 kts | 181° |
| 2026-04-16 19:34 | -25.98230 | -54.36967 | 10575 ft | 341 kts | 180° |
| 2026-04-16 19:34 | -26.00677 | -54.36806 | 10750 ft | 362 kts | 180° |
| 2026-04-16 19:34 | -26.03234 | -54.36631 | 11082 ft | 374 kts | 180° |
| 2026-04-16 19:34 | -26.05824 | -54.36740 | 11698 ft | 370 kts | 195° |
| 2026-04-16 19:35 | -26.08214 | -54.37691 | 12391 ft | 363 kts | 212° |
| 2026-04-16 19:35 | -26.10321 | -54.39226 | 13057 ft | 362 kts | 218° |
| 2026-04-16 19:35 | -26.12387 | -54.40859 | 13650 ft | 366 kts | 218° |
| 2026-04-16 19:35 | -26.14470 | -54.42515 | 14183 ft | 369 kts | 218° |
| 2026-04-16 19:36 | -26.16567 | -54.44179 | 14719 ft | 372 kts | 218° |
| 2026-04-16 19:36 | -26.18689 | -54.45853 | 15262 ft | 375 kts | 217° |
| 2026-04-16 19:36 | -26.20827 | -54.47534 | 15802 ft | 378 kts | 217° |
| 2026-04-16 19:36 | -26.22984 | -54.49225 | 16305 ft | 381 kts | 217° |
| 2026-04-16 19:37 | -26.25159 | -54.50927 | 16828 ft | 384 kts | 217° |
| 2026-04-16 19:37 | -26.27355 | -54.52644 | 17302 ft | 387 kts | 217° |
| 2026-04-16 19:37 | -26.29568 | -54.54373 | 17806 ft | 390 kts | 217° |
| 2026-04-16 19:37 | -26.31769 | -54.56093 | 18271 ft | 393 kts | 216° |
| 2026-04-16 19:38 | -26.34040 | -54.57869 | 18711 ft | 395 kts | 217° |
| 2026-04-16 19:38 | -26.36299 | -54.59635 | 19159 ft | 397 kts | 217° |
| 2026-04-16 19:38 | -26.38563 | -54.61407 | 19593 ft | 399 kts | 217° |
| 2026-04-16 19:38 | -26.40807 | -54.63164 | 20011 ft | 401 kts | 217° |
| 2026-04-16 19:39 | -26.43092 | -54.64954 | 20425 ft | 403 kts | 217° |
| 2026-04-16 19:39 | -26.45390 | -54.66755 | 20836 ft | 405 kts | 217° |
| 2026-04-16 19:39 | -26.47703 | -54.68569 | 21239 ft | 407 kts | 217° |
| 2026-04-16 19:39 | -26.50024 | -54.70391 | 21638 ft | 409 kts | 217° |
| 2026-04-16 19:40 | -26.52357 | -54.72222 | 22024 ft | 411 kts | 217° |
| 2026-04-16 19:40 | -26.54702 | -54.74063 | 22399 ft | 413 kts | 218° |
| 2026-04-16 19:40 | -26.57056 | -54.75913 | 22788 ft | 415 kts | 218° |
| 2026-04-16 19:40 | -26.59428 | -54.77779 | 23134 ft | 418 kts | 218° |
| 2026-04-16 19:41 | -26.61809 | -54.79652 | 23478 ft | 420 kts | 218° |
| 2026-04-16 19:41 | -26.64206 | -54.81538 | 23785 ft | 422 kts | 218° |
| 2026-04-16 19:41 | -26.66612 | -54.83432 | 24096 ft | 423 kts | 218° |
| 2026-04-16 19:41 | -26.69028 | -54.85335 | 24404 ft | 425 kts | 218° |
| 2026-04-16 19:42 | -26.71448 | -54.87242 | 24693 ft | 427 kts | 218° |
| 2026-04-16 19:42 | -26.73875 | -54.89156 | 24988 ft | 428 kts | 218° |
| 2026-04-16 19:42 | -26.76315 | -54.91082 | 25289 ft | 430 kts | 219° |
| 2026-04-16 19:42 | -26.78763 | -54.93014 | 25588 ft | 431 kts | 219° |
| 2026-04-16 19:43 | -26.81218 | -54.94954 | 25869 ft | 433 kts | 219° |
| 2026-04-16 19:43 | -26.83684 | -54.96903 | 26159 ft | 435 kts | 219° |
| 2026-04-16 19:43 | -26.86157 | -54.98858 | 26442 ft | 436 kts | 219° |
| 2026-04-16 19:43 | -26.88641 | -55.00824 | 26722 ft | 438 kts | 219° |
| 2026-04-16 19:44 | -26.91132 | -55.02795 | 26992 ft | 440 kts | 219° |
| 2026-04-16 19:44 | -26.93632 | -55.04776 | 27275 ft | 441 kts | 219° |
| 2026-04-16 19:44 | -26.95294 | -55.06093 | 27457 ft | 442 kts | 219° |
| 2026-04-16 19:44 | -26.97808 | -55.08086 | 27744 ft | 444 kts | 219° |
| 2026-04-16 19:45 | -27.01187 | -55.10766 | 28093 ft | 446 kts | 219° |
| 2026-04-16 19:45 | -27.02865 | -55.12098 | 28266 ft | 446 kts | 219° |
| 2026-04-16 19:45 | -27.05399 | -55.14111 | 28509 ft | 448 kts | 219° |
| 2026-04-16 19:45 | -27.07946 | -55.16135 | 28761 ft | 449 kts | 219° |
| 2026-04-16 19:46 | -27.10500 | -55.18165 | 29047 ft | 450 kts | 220° |
| 2026-04-16 19:46 | -27.13055 | -55.20197 | 29441 ft | 448 kts | 220° |
| 2026-04-16 19:46 | -27.15592 | -55.22214 | 29883 ft | 445 kts | 220° |
| 2026-04-16 19:46 | -27.18111 | -55.24219 | 30235 ft | 444 kts | 220° |
| 2026-04-16 19:47 | -27.20634 | -55.26229 | 30522 ft | 444 kts | 220° |
| 2026-04-16 19:47 | -27.23150 | -55.28235 | 30827 ft | 444 kts | 220° |
| 2026-04-16 19:47 | -27.25662 | -55.30240 | 31170 ft | 442 kts | 220° |
| 2026-04-16 19:47 | -27.28169 | -55.32241 | 31502 ft | 441 kts | 220° |
| 2026-04-16 19:48 | -27.30671 | -55.34240 | 31785 ft | 441 kts | 220° |
| 2026-04-16 19:48 | -27.33175 | -55.36241 | 32077 ft | 441 kts | 220° |
| 2026-04-16 19:48 | -27.35673 | -55.38238 | 32396 ft | 440 kts | 220° |
| 2026-04-16 19:48 | -27.38164 | -55.40231 | 32710 ft | 439 kts | 220° |
| 2026-04-16 19:49 | -27.40656 | -55.42226 | 33000 ft | 439 kts | 220° |
| 2026-04-16 19:49 | -27.43143 | -55.44218 | 33282 ft | 439 kts | 220° |
| 2026-04-16 19:49 | -27.45589 | -55.46179 | 33597 ft | 437 kts | 220° |
| 2026-04-16 19:49 | -27.48064 | -55.48163 | 33886 ft | 437 kts | 220° |
| 2026-04-16 19:50 | -27.50538 | -55.50149 | 34104 ft | 437 kts | 220° |
| 2026-04-16 19:50 | -27.53010 | -55.52134 | 34368 ft | 435 kts | 220° |
| 2026-04-16 19:50 | -27.55469 | -55.54108 | 34694 ft | 432 kts | 221° |
| 2026-04-16 19:50 | -27.57911 | -55.56070 | 34999 ft | 430 kts | 221° |
| 2026-04-16 19:51 | -27.60346 | -55.58029 | 35207 ft | 431 kts | 221° |
| 2026-04-16 19:51 | -27.62795 | -55.59980 | 35386 ft | 432 kts | 220° |
| 2026-04-16 19:51 | -27.65281 | -55.61870 | 35651 ft | 431 kts | 219° |
| 2026-04-16 19:51 | -27.67781 | -55.63730 | 35887 ft | 430 kts | 219° |
| 2026-04-16 19:52 | -27.70298 | -55.65593 | 35864 ft | 434 kts | 219° |
| 2026-04-16 19:52 | -27.75332 | -55.69329 | 35871 ft | 431 kts | 219° |
| 2026-04-16 19:53 | -27.80305 | -55.73047 | 35873 ft | 427 kts | 220° |
| 2026-04-16 19:53 | -27.85245 | -55.76760 | 35874 ft | 425 kts | 220° |
| 2026-04-16 19:54 | -27.90159 | -55.80463 | 35887 ft | 424 kts | 220° |
| 2026-04-16 19:54 | -27.95073 | -55.84170 | 35877 ft | 425 kts | 220° |
| 2026-04-16 19:55 | -27.99996 | -55.87886 | 35878 ft | 426 kts | 220° |
| 2026-04-16 19:55 | -28.04930 | -55.91614 | 35866 ft | 427 kts | 220° |
| 2026-04-16 19:56 | -28.09847 | -55.95333 | 35873 ft | 429 kts | 220° |
| 2026-04-16 19:56 | -28.14816 | -55.99096 | 35866 ft | 430 kts | 220° |
| 2026-04-16 19:57 | -28.19803 | -56.02876 | 35862 ft | 432 kts | 220° |
| 2026-04-16 19:57 | -28.24811 | -56.06677 | 35865 ft | 434 kts | 220° |
| 2026-04-16 19:58 | -28.29833 | -56.10492 | 35855 ft | 435 kts | 220° |
| 2026-04-16 19:58 | -28.34859 | -56.14315 | 35850 ft | 435 kts | 220° |
| 2026-04-16 19:59 | -28.39885 | -56.18141 | 35857 ft | 435 kts | 220° |
| 2026-04-16 19:59 | -28.44900 | -56.21965 | 35854 ft | 434 kts | 220° |
| 2026-04-16 20:00 | -28.52409 | -56.27697 | 35860 ft | 433 kts | 220° |
| 2026-04-16 20:00 | -28.57370 | -56.31491 | 35850 ft | 432 kts | 221° |
| 2026-04-16 20:01 | -28.62352 | -56.35306 | 35845 ft | 432 kts | 221° |
| 2026-04-16 20:01 | -28.67329 | -56.39121 | 35843 ft | 431 kts | 221° |
| 2026-04-16 20:02 | -28.72297 | -56.42933 | 35845 ft | 430 kts | 221° |
| 2026-04-16 20:02 | -28.77257 | -56.46744 | 35843 ft | 430 kts | 221° |
| 2026-04-16 20:03 | -28.82216 | -56.50560 | 35841 ft | 430 kts | 221° |
| 2026-04-16 20:03 | -28.87175 | -56.54379 | 35846 ft | 431 kts | 221° |
| 2026-04-16 20:04 | -28.92143 | -56.58209 | 35855 ft | 431 kts | 221° |
| 2026-04-16 20:04 | -28.97123 | -56.62056 | 35847 ft | 433 kts | 221° |
| 2026-04-16 20:05 | -29.02114 | -56.65916 | 35841 ft | 434 kts | 221° |
| 2026-04-16 20:05 | -29.07118 | -56.69790 | 35839 ft | 435 kts | 221° |
| 2026-04-16 20:06 | -29.12130 | -56.73675 | 35837 ft | 435 kts | 221° |
| 2026-04-16 20:06 | -29.17112 | -56.77542 | 35846 ft | 436 kts | 221° |
| 2026-04-16 20:07 | -29.22140 | -56.81448 | 35847 ft | 437 kts | 221° |
| 2026-04-16 20:07 | -29.27167 | -56.85360 | 35854 ft | 437 kts | 221° |
| 2026-04-16 20:08 | -29.32202 | -56.89281 | 35840 ft | 438 kts | 221° |
| 2026-04-16 20:08 | -29.37241 | -56.93211 | 35839 ft | 438 kts | 221° |
| 2026-04-16 20:09 | -29.42274 | -56.97141 | 35838 ft | 438 kts | 221° |
| 2026-04-16 20:09 | -29.47303 | -57.01072 | 35836 ft | 437 kts | 221° |
| 2026-04-16 20:10 | -29.52325 | -57.05003 | 35837 ft | 437 kts | 221° |
| 2026-04-16 20:10 | -29.57341 | -57.08934 | 35830 ft | 436 kts | 221° |
| 2026-04-16 20:11 | -29.62345 | -57.12861 | 35841 ft | 436 kts | 221° |
| 2026-04-16 20:11 | -29.67352 | -57.16795 | 35833 ft | 436 kts | 221° |
| 2026-04-16 20:12 | -29.72354 | -57.20730 | 35835 ft | 435 kts | 221° |
| 2026-04-16 20:12 | -29.77352 | -57.24665 | 35844 ft | 435 kts | 221° |
| 2026-04-16 20:13 | -29.82349 | -57.28606 | 35840 ft | 435 kts | 221° |
| 2026-04-16 20:13 | -29.87341 | -57.32548 | 35832 ft | 435 kts | 221° |
| 2026-04-16 20:14 | -29.92339 | -57.36499 | 35830 ft | 436 kts | 221° |
| 2026-04-16 20:14 | -29.97310 | -57.40434 | 35838 ft | 437 kts | 221° |
| 2026-04-16 20:15 | -30.02319 | -57.44404 | 35824 ft | 437 kts | 221° |
| 2026-04-16 20:15 | -30.07328 | -57.48378 | 35854 ft | 437 kts | 221° |
| 2026-04-16 20:16 | -30.12338 | -57.52358 | 35833 ft | 437 kts | 221° |
| 2026-04-16 20:16 | -30.17354 | -57.56350 | 35827 ft | 438 kts | 221° |
| 2026-04-16 20:17 | -30.22367 | -57.60342 | 35822 ft | 438 kts | 221° |
| 2026-04-16 20:17 | -30.27583 | -57.64045 | 35816 ft | 447 kts | 211° |
| 2026-04-16 20:18 | -30.33559 | -57.66326 | 35834 ft | 455 kts | 203° |
| 2026-04-16 20:18 | -30.39644 | -57.68354 | 35839 ft | 456 kts | 203° |
| 2026-04-16 20:19 | -30.45715 | -57.70431 | 35828 ft | 455 kts | 203° |
| 2026-04-16 20:19 | -30.51783 | -57.72550 | 35815 ft | 455 kts | 204° |
| 2026-04-16 20:20 | -30.57843 | -57.74677 | 35817 ft | 455 kts | 204° |
| 2026-04-16 20:20 | -30.63898 | -57.76802 | 35826 ft | 455 kts | 203° |
| 2026-04-16 20:21 | -30.69964 | -57.78932 | 35812 ft | 455 kts | 203° |
| 2026-04-16 20:21 | -30.76022 | -57.81046 | 35817 ft | 455 kts | 203° |
| 2026-04-16 20:22 | -30.82099 | -57.83164 | 35813 ft | 456 kts | 203° |
| 2026-04-16 20:22 | -30.88167 | -57.85282 | 35812 ft | 456 kts | 203° |
| 2026-04-16 20:23 | -30.94240 | -57.87407 | 35812 ft | 456 kts | 203° |
| 2026-04-16 20:23 | -31.00275 | -57.89523 | 35806 ft | 456 kts | 203° |
| 2026-04-16 20:24 | -31.06393 | -57.91670 | 35806 ft | 456 kts | 203° |
| 2026-04-16 20:24 | -31.12426 | -57.93790 | 35815 ft | 457 kts | 203° |
| 2026-04-16 20:25 | -31.18524 | -57.95936 | 35810 ft | 458 kts | 203° |
| 2026-04-16 20:25 | -31.24630 | -57.98088 | 35802 ft | 458 kts | 203° |
| 2026-04-16 20:26 | -31.30729 | -58.00239 | 35803 ft | 458 kts | 203° |
| 2026-04-16 20:26 | -31.36843 | -58.02399 | 35801 ft | 459 kts | 203° |
| 2026-04-16 20:27 | -31.42947 | -58.04559 | 35788 ft | 459 kts | 203° |
| 2026-04-16 20:27 | -31.49060 | -58.06724 | 35780 ft | 459 kts | 203° |
| 2026-04-16 20:28 | -31.55174 | -58.08893 | 35778 ft | 459 kts | 203° |
| 2026-04-16 20:28 | -31.61292 | -58.11067 | 35779 ft | 459 kts | 203° |
| 2026-04-16 20:29 | -31.67408 | -58.13242 | 35790 ft | 459 kts | 203° |
| 2026-04-16 20:29 | -31.73526 | -58.15422 | 35797 ft | 460 kts | 202° |
| 2026-04-16 20:30 | -31.79650 | -58.17606 | 35793 ft | 460 kts | 202° |
| 2026-04-16 20:30 | -31.85774 | -58.19794 | 35781 ft | 460 kts | 202° |
| 2026-04-16 20:31 | -31.91890 | -58.21981 | 35791 ft | 460 kts | 202° |
| 2026-04-16 20:31 | -31.97974 | -58.24161 | 35790 ft | 460 kts | 202° |
| 2026-04-16 20:32 | -32.04099 | -58.26358 | 35791 ft | 460 kts | 202° |
| 2026-04-16 20:32 | -32.10223 | -58.28558 | 35784 ft | 460 kts | 202° |
| 2026-04-16 20:33 | -32.16387 | -58.30776 | 35785 ft | 460 kts | 202° |
| 2026-04-16 20:33 | -32.22507 | -58.32981 | 35784 ft | 460 kts | 202° |
| 2026-04-16 20:34 | -32.28579 | -58.35172 | 35778 ft | 460 kts | 202° |
| 2026-04-16 20:34 | -32.34699 | -58.37379 | 35785 ft | 459 kts | 202° |
| 2026-04-16 20:35 | -32.40815 | -58.39578 | 35777 ft | 460 kts | 202° |
| 2026-04-16 20:35 | -32.46934 | -58.41780 | 35785 ft | 460 kts | 202° |
| 2026-04-16 20:36 | -32.52020 | -58.43614 | 35782 ft | 460 kts | 202° |
| 2026-04-16 20:36 | -32.55082 | -58.44720 | 35613 ft | 463 kts | 202° |
| 2026-04-16 20:36 | -32.58191 | -58.45846 | 35048 ft | 467 kts | 202° |
| 2026-04-16 20:37 | -32.61291 | -58.46967 | 34450 ft | 466 kts | 202° |
| 2026-04-16 20:37 | -32.64395 | -58.48090 | 33839 ft | 467 kts | 202° |
| 2026-04-16 20:37 | -32.67509 | -58.49218 | 33054 ft | 469 kts | 202° |
| 2026-04-16 20:37 | -32.70633 | -58.50350 | 32339 ft | 469 kts | 202° |
| 2026-04-16 20:38 | -32.73762 | -58.51482 | 31639 ft | 470 kts | 202° |
| 2026-04-16 20:38 | -32.76890 | -58.52616 | 30902 ft | 471 kts | 202° |
| 2026-04-16 20:38 | -32.80018 | -58.53753 | 30313 ft | 469 kts | 202° |
| 2026-04-16 20:38 | -32.83131 | -58.54884 | 29738 ft | 466 kts | 202° |
| 2026-04-16 20:39 | -32.86215 | -58.56005 | 29157 ft | 461 kts | 202° |
| 2026-04-16 20:39 | -32.89269 | -58.57117 | 28585 ft | 456 kts | 202° |
| 2026-04-16 20:39 | -32.92286 | -58.58216 | 28041 ft | 451 kts | 202° |
| 2026-04-16 20:39 | -32.95274 | -58.59306 | 27510 ft | 446 kts | 202° |
| 2026-04-16 20:40 | -32.98227 | -58.60383 | 26996 ft | 442 kts | 201° |
| 2026-04-16 20:40 | -33.01128 | -58.61380 | 26481 ft | 439 kts | 197° |
| 2026-04-16 20:40 | -33.04150 | -58.61949 | 25973 ft | 439 kts | 190° |
| 2026-04-16 20:40 | -33.07176 | -58.62303 | 25467 ft | 436 kts | 189° |
| 2026-04-16 20:41 | -33.10187 | -58.62636 | 24961 ft | 432 kts | 189° |
| 2026-04-16 20:41 | -33.13169 | -58.62960 | 24438 ft | 429 kts | 189° |
| 2026-04-16 20:41 | -33.16133 | -58.63281 | 23926 ft | 426 kts | 189° |
| 2026-04-16 20:41 | -33.19076 | -58.63601 | 23419 ft | 423 kts | 189° |
| 2026-04-16 20:42 | -33.22001 | -58.63920 | 22854 ft | 420 kts | 188° |
| 2026-04-16 20:42 | -33.24899 | -58.64236 | 22320 ft | 416 kts | 188° |
| 2026-04-16 20:42 | -33.27765 | -58.64548 | 21805 ft | 411 kts | 188° |
| 2026-04-16 20:42 | -33.30597 | -58.64860 | 21297 ft | 407 kts | 188° |
| 2026-04-16 20:43 | -33.33403 | -58.65171 | 20822 ft | 402 kts | 188° |
| 2026-04-16 20:43 | -33.36173 | -58.65477 | 20337 ft | 398 kts | 188° |
| 2026-04-16 20:43 | -33.38916 | -58.65777 | 19854 ft | 394 kts | 187° |
| 2026-04-16 20:43 | -33.41632 | -58.66072 | 19398 ft | 390 kts | 187° |
| 2026-04-16 20:44 | -33.44323 | -58.66365 | 18914 ft | 387 kts | 187° |
| 2026-04-16 20:44 | -33.46991 | -58.66659 | 18438 ft | 384 kts | 187° |
| 2026-04-16 20:44 | -33.49642 | -58.66952 | 17948 ft | 381 kts | 187° |
| 2026-04-16 20:44 | -33.52270 | -58.67243 | 17423 ft | 378 kts | 187° |
| 2026-04-16 20:45 | -33.54876 | -58.67531 | 16940 ft | 374 kts | 187° |
| 2026-04-16 20:45 | -33.57451 | -58.67817 | 16472 ft | 370 kts | 187° |
| 2026-04-16 20:45 | -33.60001 | -58.68099 | 16007 ft | 366 kts | 187° |
| 2026-04-16 20:45 | -33.62528 | -58.68380 | 15551 ft | 363 kts | 187° |
| 2026-04-16 20:46 | -33.65030 | -58.68658 | 15101 ft | 360 kts | 187° |
| 2026-04-16 20:46 | -33.67514 | -58.68934 | 14653 ft | 357 kts | 188° |
| 2026-04-16 20:46 | -33.69976 | -58.69213 | 14212 ft | 354 kts | 187° |
| 2026-04-16 20:46 | -33.72423 | -58.69491 | 13752 ft | 352 kts | 187° |
| 2026-04-16 20:47 | -33.74827 | -58.69761 | 13266 ft | 350 kts | 187° |
| 2026-04-16 20:47 | -33.77275 | -58.70035 | 12785 ft | 347 kts | 187° |
| 2026-04-16 20:47 | -33.79641 | -58.70300 | 12348 ft | 344 kts | 187° |
| 2026-04-16 20:47 | -33.82017 | -58.70565 | 11903 ft | 341 kts | 187° |
| 2026-04-16 20:48 | -33.84372 | -58.70827 | 11447 ft | 338 kts | 187° |
| 2026-04-16 20:48 | -33.86707 | -58.71088 | 11022 ft | 335 kts | 187° |
| 2026-04-16 20:48 | -33.89019 | -58.71346 | 10627 ft | 332 kts | 187° |
| 2026-04-16 20:48 | -33.91276 | -58.71597 | 10485 ft | 320 kts | 187° |
| 2026-04-16 20:49 | -33.93455 | -58.71840 | 10330 ft | 309 kts | 187° |
| 2026-04-16 20:49 | -33.95566 | -58.72076 | 10193 ft | 300 kts | 187° |
| 2026-04-16 20:49 | -33.97609 | -58.72304 | 10067 ft | 290 kts | 187° |
| 2026-04-16 20:49 | -33.99591 | -58.72526 | 9941 ft | 282 kts | 187° |
| 2026-04-16 20:50 | -34.01511 | -58.72741 | 9835 ft | 273 kts | 187° |
| 2026-04-16 20:50 | -34.03378 | -58.72950 | 9600 ft | 269 kts | 187° |
| 2026-04-16 20:50 | -34.05234 | -58.73159 | 9310 ft | 267 kts | 187° |
| 2026-04-16 20:50 | -34.07078 | -58.73366 | 9017 ft | 265 kts | 187° |
| 2026-04-16 20:51 | -34.08904 | -58.73572 | 8727 ft | 263 kts | 186° |
| 2026-04-16 20:51 | -34.10719 | -58.73776 | 8440 ft | 261 kts | 186° |
| 2026-04-16 20:51 | -34.12522 | -58.73978 | 8159 ft | 259 kts | 186° |
| 2026-04-16 20:51 | -34.14310 | -58.74179 | 7880 ft | 257 kts | 186° |
| 2026-04-16 20:52 | -34.16088 | -58.74379 | 7594 ft | 256 kts | 186° |
| 2026-04-16 20:52 | -34.17859 | -58.74578 | 7319 ft | 255 kts | 186° |
| 2026-04-16 20:52 | -34.19621 | -58.74777 | 7039 ft | 254 kts | 186° |
| 2026-04-16 20:52 | -34.21378 | -58.74974 | 6759 ft | 253 kts | 186° |
| 2026-04-16 20:53 | -34.23107 | -58.75169 | 6478 ft | 253 kts | 186° |
| 2026-04-16 20:53 | -34.24855 | -58.75366 | 6199 ft | 252 kts | 186° |
| 2026-04-16 20:53 | -34.26599 | -58.75563 | 5900 ft | 252 kts | 186° |
| 2026-04-16 20:53 | -34.28341 | -58.75759 | 5605 ft | 251 kts | 186° |
| 2026-04-16 20:54 | -34.30070 | -58.75953 | 5325 ft | 249 kts | 186° |
| 2026-04-16 20:54 | -34.31795 | -58.75915 | 5025 ft | 251 kts | 167° |
| 2026-04-16 20:54 | -34.33369 | -58.75012 | 4781 ft | 252 kts | 149° |
| 2026-04-16 20:54 | -34.34690 | -58.73597 | 4511 ft | 254 kts | 139° |
| 2026-04-16 20:55 | -34.35915 | -58.72045 | 4222 ft | 255 kts | 137° |
| 2026-04-16 20:55 | -34.37123 | -58.70488 | 3948 ft | 254 kts | 137° |
| 2026-04-16 20:55 | -34.38337 | -58.68939 | 3668 ft | 253 kts | 137° |
| 2026-04-16 20:55 | -34.39554 | -58.67404 | 3421 ft | 252 kts | 138° |
| 2026-04-16 20:56 | -34.40750 | -58.65905 | 3327 ft | 243 kts | 138° |
| 2026-04-16 20:56 | -34.41893 | -58.64475 | 3315 ft | 230 kts | 139° |
| 2026-04-16 20:56 | -34.42984 | -58.63114 | 3300 ft | 221 kts | 139° |
| 2026-04-16 20:56 | -34.44037 | -58.61803 | 3230 ft | 214 kts | 139° |
| 2026-04-16 20:57 | -34.45070 | -58.60515 | 3123 ft | 214 kts | 139° |
| 2026-04-16 20:57 | -34.46103 | -58.59205 | 3024 ft | 215 kts | 135° |
| 2026-04-16 20:57 | -34.46992 | -58.57741 | 2856 ft | 215 kts | 128° |
| 2026-04-16 20:57 | -34.47807 | -58.56236 | 2599 ft | 212 kts | 128° |
| 2026-04-16 20:58 | -34.48614 | -58.54761 | 2323 ft | 208 kts | 128° |
| 2026-04-16 20:58 | -34.49399 | -58.53337 | 2050 ft | 198 kts | 128° |
| 2026-04-16 20:58 | -34.50148 | -58.51986 | 1777 ft | 186 kts | 128° |
| 2026-04-16 20:58 | -34.50843 | -58.50732 | 1540 ft | 173 kts | 129° |
| 2026-04-16 20:59 | -34.51480 | -58.49583 | 1342 ft | 156 kts | 129° |
| 2026-04-16 20:59 | -34.52061 | -58.48538 | 1139 ft | 146 kts | 130° |
| 2026-04-16 20:59 | -34.52633 | -58.47511 | 954 ft | 147 kts | 128° |
| 2026-04-16 20:59 | -34.53206 | -58.46480 | 757 ft | 147 kts | 128° |
| 2026-04-16 21:00 | -34.53775 | -58.45439 | 610 ft | 149 kts | 126° |
| 2026-04-16 21:00 | -34.54349 | -58.44398 | 412 ft | 147 kts | 126° |
| 2026-04-16 21:00 | -34.54926 | -58.43365 | 229 ft | 150 kts | 125° |
| 2026-04-16 21:00 | -34.55511 | -58.42310 | 36 ft | 150 kts | 127° |
| 2026-04-16 21:01 | -34.56028 | -58.41388 | 27 ft | 84 kts | 123° |
| 2026-04-16 21:01 | -34.56224 | -58.41011 | 30 ft | 28 kts | 105° |
| 2026-04-16 21:01 | -34.56234 | -58.40868 | 27 ft | 9 kts | 98° |
| 2026-04-16 21:01 | -34.56230 | -58.40801 | 29 ft | 7 kts | 38° |
| 2026-04-16 21:02 | -34.56191 | -58.40830 | 28 ft | 7 kts | 315° |
| 2026-04-16 21:02 | -34.56165 | -58.40880 | 29 ft | 7 kts | 289° |
| 2026-04-16 21:02 | -34.56139 | -58.40950 | 27 ft | 11 kts | 303° |
| 2026-04-16 21:03 | -34.56049 | -58.41093 | 26 ft | 11 kts | 308° |
| 2026-04-16 21:03 | -34.55999 | -58.41174 | 30 ft | 13 kts | 307° |
| 2026-04-16 21:03 | -34.55958 | -58.41240 | 27 ft | 7 kts | 307° |
| 2026-04-16 21:03 | -34.55933 | -58.41280 | 29 ft | 5 kts | 306° |
| 2026-04-16 21:04 | -34.55909 | -58.41302 | 30 ft | 5 kts | 353° |
| 2026-04-16 21:04 | -34.55886 | -58.41290 | 29 ft | 3 kts | 31° |
| 2026-04-16 21:04 | -34.55861 | -58.41278 | 27 ft | 5 kts | 12° |
| 2026-04-16 21:04 | -34.55829 | -58.41292 | 26 ft | 1 kts | 312° |
| 2026-04-16 21:05 | -34.55809 | -58.41303 | 28 ft | 2 kts | 9° |
| 2026-04-16 21:05 | -34.55793 | -58.41293 | 29 ft | 3 kts | 36° |
| 2026-04-16 21:05 | -34.55785 | -58.41285 | 28 ft | 0 kts | 40° |